createdAt,value
2022-12-12T00:00:41.075Z,36.30
2022-12-12T00:03:08.145Z,35.57
2022-12-12T00:05:35.427Z,33.20
2022-12-12T00:08:02.432Z,30.93
2022-12-12T00:10:29.790Z,33.07
2022-12-12T00:12:56.851Z,33.40
2022-12-12T00:15:23.959Z,33.57
2022-12-12T00:17:51.159Z,32.53
2022-12-12T00:20:18.189Z,35.20
2022-12-12T00:22:45.193Z,32.33
2022-12-12T00:25:12.723Z,29.63
2022-12-12T00:27:39.817Z,39.67
2022-12-12T00:30:07.627Z,32.23
2022-12-12T00:32:34.551Z,35.90
2022-12-12T00:35:01.501Z,33.90
2022-12-12T00:37:28.460Z,33.97
2022-12-12T00:39:55.558Z,35.33
2022-12-12T00:42:22.492Z,36.23
2022-12-12T00:44:49.621Z,34.43
2022-12-12T00:47:18.711Z,38.40
2022-12-12T00:49:45.603Z,36.47
2022-12-12T00:52:12.511Z,37.13
2022-12-12T00:54:39.443Z,34.67
2022-12-12T00:57:06.341Z,36.47
2022-12-12T00:59:33.318Z,33.70
2022-12-12T01:02:00.368Z,32.67
2022-12-12T01:04:27.371Z,32.83
2022-12-12T01:06:54.346Z,37.67
2022-12-12T01:09:21.254Z,34.63
2022-12-12T01:11:48.175Z,33.37
2022-12-12T01:14:15.206Z,33.30
2022-12-12T01:16:42.203Z,31.33
2022-12-12T01:19:09.147Z,32.93
2022-12-12T01:21:37.342Z,32.20
2022-12-12T01:24:04.708Z,32.20
2022-12-12T01:26:31.847Z,32.93
2022-12-12T01:28:58.906Z,32.80
2022-12-12T01:31:25.879Z,29.97
2022-12-12T01:33:52.843Z,30.70
2022-12-12T01:36:23.360Z,30.23
2022-12-12T01:38:53.371Z,32.80
2022-12-12T01:41:21.379Z,29.67
2022-12-12T01:43:48.300Z,27.73
2022-12-12T01:46:39.122Z,33.57
2022-12-12T01:49:26.281Z,34.77
2022-12-12T01:51:58.491Z,30.50
2022-12-12T01:54:31.794Z,31.23
2022-12-12T01:57:02.519Z,29.67
2022-12-12T01:59:29.882Z,28.13
2022-12-12T02:01:57.155Z,29.20
2022-12-12T02:04:25.487Z,31.53
2022-12-12T02:06:53.150Z,30.17
2022-12-12T02:09:21.401Z,32.57
2022-12-12T02:11:53.142Z,39.30
2022-12-12T02:14:27.688Z,29.10
2022-12-12T02:17:32.775Z,29.07
2022-12-12T02:20:24.564Z,34.37
2022-12-12T02:23:31.414Z,30.87
2022-12-12T02:26:40.342Z,31.63
2022-12-12T02:29:59.707Z,33.13
2022-12-12T02:32:42.478Z,29.57
2022-12-12T02:35:32.881Z,31.13
2022-12-12T02:39:07.465Z,33.73
2022-12-12T02:41:44.642Z,30.97
2022-12-12T02:44:23.412Z,34.67
2022-12-12T02:47:19.427Z,31.93
2022-12-12T02:50:00.427Z,28.57
2022-12-12T02:52:27.920Z,31.03
2022-12-12T02:54:55.206Z,29.27
2022-12-12T02:57:25.802Z,33.30
2022-12-12T03:00:01.612Z,31.60
2022-12-12T03:03:22.313Z,28.53
2022-12-12T03:06:45.225Z,27.43
2022-12-12T03:09:39.414Z,23.23
2022-12-12T03:12:08.190Z,27.43
2022-12-12T03:14:49.514Z,24.80
2022-12-12T03:17:22.106Z,28.10
2022-12-12T03:20:01.135Z,28.53
2022-12-12T03:23:03.135Z,26.20
2022-12-12T03:25:57.478Z,30.23
2022-12-12T03:28:34.040Z,26.07
2022-12-12T03:31:07.933Z,31.53
2022-12-12T03:33:50.863Z,27.33
2022-12-12T03:37:05.477Z,34.50
2022-12-12T03:39:43.420Z,27.20
2022-12-12T03:42:43.663Z,30.07
2022-12-12T03:45:31.006Z,32.97
2022-12-12T03:48:27.716Z,30.83
2022-12-12T03:51:02.444Z,31.87
2022-12-12T03:53:36.706Z,30.33
2022-12-12T03:56:31.276Z,27.60
2022-12-12T03:59:10.545Z,29.87
2022-12-12T04:01:54.513Z,33.37
2022-12-12T04:04:46.922Z,32.90
2022-12-12T04:07:37.765Z,35.27
2022-12-12T04:10:24.077Z,32.00
2022-12-12T04:13:21.446Z,37.23
2022-12-12T04:16:07.040Z,30.07
2022-12-12T04:18:46.266Z,33.00
2022-12-12T04:21:56.511Z,34.63
2022-12-12T04:24:39.457Z,33.30
2022-12-12T04:27:19.628Z,32.17
2022-12-12T04:30:02.557Z,33.70
2022-12-12T04:33:06.342Z,33.17
2022-12-12T04:35:43.452Z,31.43
2022-12-12T04:38:21.847Z,30.03
2022-12-12T04:40:55.216Z,33.63
2022-12-12T04:43:35.704Z,34.13
2022-12-12T04:46:09.283Z,36.90
2022-12-12T04:48:47.873Z,32.17
2022-12-12T04:51:27.069Z,34.20
2022-12-12T04:54:14.375Z,31.40
2022-12-12T04:56:44.143Z,31.60
2022-12-12T04:59:11.228Z,33.83
2022-12-12T05:01:58.376Z,38.10
2022-12-12T05:04:31.474Z,36.27
2022-12-12T05:07:07.775Z,38.30
2022-12-12T05:09:35.870Z,36.70
2022-12-12T05:12:02.952Z,37.27
2022-12-12T05:14:31.796Z,35.27
2022-12-12T05:17:12.113Z,34.97
2022-12-12T05:19:39.079Z,35.30
2022-12-12T05:22:07.179Z,37.00
2022-12-12T05:24:36.695Z,34.23
2022-12-12T05:27:03.829Z,37.80
2022-12-12T05:29:32.002Z,32.50
2022-12-12T05:31:59.020Z,31.27
2022-12-12T05:34:26.007Z,34.43
2022-12-12T05:36:52.964Z,30.23
2022-12-12T05:39:19.941Z,34.43
2022-12-12T05:41:47.304Z,36.20
2022-12-12T05:44:14.243Z,35.17
2022-12-12T05:46:41.262Z,35.67
2022-12-12T05:49:08.346Z,33.63
2022-12-12T05:51:35.265Z,37.50
2022-12-12T05:54:02.201Z,34.47
2022-12-12T05:56:29.162Z,32.63
2022-12-12T05:58:56.075Z,34.63
2022-12-12T06:01:23.000Z,39.13
2022-12-12T06:03:49.956Z,34.33
2022-12-12T06:06:16.990Z,38.80
2022-12-12T06:08:44.084Z,35.50
2022-12-12T06:11:11.049Z,35.67
2022-12-12T06:13:38.876Z,32.60
2022-12-12T06:16:11.079Z,33.50
2022-12-12T06:18:38.567Z,31.00
2022-12-12T06:21:09.467Z,35.10
2022-12-12T06:23:41.718Z,28.93
2022-12-12T06:26:12.052Z,29.07
2022-12-12T06:28:39.413Z,32.73
2022-12-12T06:31:11.605Z,28.23
2022-12-12T06:33:43.191Z,33.47
2022-12-12T06:36:23.859Z,33.00
2022-12-12T06:38:56.390Z,30.63
2022-12-12T06:41:26.162Z,29.53
2022-12-12T06:43:53.293Z,28.03
2022-12-12T06:46:24.381Z,32.00
2022-12-12T06:48:52.072Z,29.70
2022-12-12T06:51:24.707Z,29.77
2022-12-12T06:53:53.007Z,30.37
2022-12-12T06:56:23.964Z,30.73
2022-12-12T06:58:52.052Z,28.53
2022-12-12T07:01:21.776Z,27.60
2022-12-12T07:03:50.675Z,33.10
2022-12-12T07:06:20.418Z,31.30
2022-12-12T07:08:48.076Z,28.73
2022-12-12T07:11:22.064Z,26.30
2022-12-12T07:13:49.423Z,31.27
2022-12-12T07:16:17.572Z,31.40
2022-12-12T07:18:44.653Z,30.17
2022-12-12T07:21:16.149Z,29.03
2022-12-12T07:23:43.210Z,30.83
2022-12-12T07:26:17.375Z,29.20
2022-12-12T07:28:44.518Z,30.33
2022-12-12T07:31:16.070Z,30.17
2022-12-12T07:33:44.809Z,36.07
2022-12-12T07:36:14.449Z,35.30
2022-12-12T07:38:42.072Z,33.57
2022-12-12T07:41:16.080Z,32.33
2022-12-12T07:43:45.143Z,33.93
2022-12-12T07:46:20.164Z,31.03
2022-12-12T07:48:48.052Z,28.67
2022-12-12T07:51:15.669Z,28.10
2022-12-12T07:53:42.954Z,30.13
2022-12-12T07:56:13.382Z,30.67
2022-12-12T07:58:40.633Z,30.03
2022-12-12T08:01:21.275Z,30.63
2022-12-12T08:03:49.558Z,34.07
2022-12-12T08:06:17.950Z,34.93
2022-12-12T08:08:46.133Z,30.97
2022-12-12T08:11:16.731Z,28.80
2022-12-12T08:13:44.512Z,34.63
2022-12-12T08:16:31.914Z,32.53
2022-12-12T08:18:59.351Z,40.03
2022-12-12T08:21:28.003Z,40.87
2022-12-12T08:23:59.942Z,43.77
2022-12-12T08:26:27.701Z,41.93
2022-12-12T08:28:56.072Z,51.70
2022-12-12T08:31:24.179Z,43.70
2022-12-12T08:33:51.586Z,32.80
2022-12-12T08:36:26.798Z,31.77
2022-12-12T08:38:53.835Z,29.20
2022-12-12T08:41:20.857Z,32.03
2022-12-12T08:43:49.117Z,29.47
2022-12-12T08:46:18.538Z,35.57
2022-12-12T08:48:47.859Z,33.80
2022-12-12T08:51:18.863Z,32.27
2022-12-12T08:53:48.199Z,28.90
2022-12-12T08:56:16.807Z,27.90
2022-12-12T08:58:45.606Z,27.10
2022-12-12T09:01:22.234Z,28.60
2022-12-12T09:03:50.727Z,27.00
2022-12-12T09:06:18.354Z,29.80
2022-12-12T09:08:45.859Z,30.47
2022-12-12T09:11:13.480Z,32.23
2022-12-12T09:13:41.411Z,35.40
2022-12-12T09:16:09.322Z,28.47
2022-12-12T09:18:37.323Z,28.17
2022-12-12T09:21:05.463Z,26.47
2022-12-12T09:23:32.701Z,24.23
2022-12-12T09:26:05.195Z,27.87
2022-12-12T09:28:32.211Z,24.77
2022-12-12T09:30:59.144Z,28.40
2022-12-12T09:33:26.161Z,27.63
2022-12-12T09:36:01.875Z,28.83
2022-12-12T09:38:29.484Z,27.90
2022-12-12T09:41:17.842Z,28.63
2022-12-12T09:44:10.139Z,29.17
2022-12-12T09:46:49.402Z,23.60
2022-12-12T09:49:39.918Z,25.53
2022-12-12T09:52:35.096Z,27.87
2022-12-12T09:55:39.897Z,27.30
2022-12-12T09:58:34.287Z,31.47
2022-12-12T10:01:20.681Z,26.93
2022-12-12T10:03:47.540Z,28.63
2022-12-12T10:09:23.150Z,25.07
2022-12-12T10:11:50.781Z,28.60
2022-12-12T10:14:46.944Z,29.97
2022-12-12T10:17:35.847Z,28.80
2022-12-12T10:20:14.262Z,24.83
2022-12-12T10:22:55.917Z,26.57
2022-12-12T10:25:48.990Z,24.43
2022-12-12T10:28:19.594Z,21.17
2022-12-12T10:31:16.657Z,25.73
2022-12-12T10:34:26.765Z,32.50
2022-12-12T10:37:06.041Z,26.13
2022-12-12T10:40:13.311Z,28.23
2022-12-12T10:42:54.775Z,27.53
2022-12-12T10:45:36.819Z,24.03
2022-12-12T10:48:04.423Z,25.50
2022-12-12T10:50:39.705Z,26.87
2022-12-12T10:53:09.347Z,25.33
2022-12-12T10:56:23.230Z,27.83
2022-12-12T10:59:03.693Z,26.40
2022-12-12T11:02:08.499Z,27.40
2022-12-12T11:04:23.030Z,23.67
2022-12-12T11:06:52.726Z,29.17
2022-12-12T11:09:24.983Z,21.47
2022-12-12T11:11:58.204Z,25.87
2022-12-12T11:14:54.280Z,23.27
2022-12-12T11:17:33.901Z,27.87
2022-12-12T11:20:08.500Z,22.50
2022-12-12T11:22:39.194Z,23.87
2022-12-12T11:25:06.924Z,22.07
2022-12-12T11:27:38.405Z,28.87
2022-12-12T11:30:39.896Z,24.93
2022-12-12T11:33:16.244Z,27.73
2022-12-12T11:35:47.431Z,25.47
2022-12-12T11:38:18.392Z,25.10
2022-12-12T11:40:58.597Z,21.13
2022-12-12T11:43:30.888Z,25.80
2022-12-12T11:46:16.167Z,26.27
2022-12-12T11:48:52.083Z,23.20
2022-12-12T11:51:45.748Z,23.27
2022-12-12T11:54:31.288Z,23.93
2022-12-12T11:57:12.555Z,23.50
2022-12-12T12:00:19.152Z,23.13
2022-12-12T12:03:23.222Z,23.60
2022-12-12T12:05:55.913Z,19.93
2022-12-12T12:08:40.779Z,21.33
2022-12-12T12:11:29.283Z,20.47
2022-12-12T12:14:30.918Z,24.60
2022-12-12T12:17:17.193Z,28.83
2022-12-12T12:19:58.528Z,25.37
2022-12-12T12:23:05.397Z,22.00
2022-12-12T12:25:54.777Z,18.50
2022-12-12T12:28:37.684Z,24.73
2022-12-12T12:31:14.366Z,21.30
2022-12-12T12:33:51.569Z,25.33
2022-12-12T12:36:56.869Z,25.47
2022-12-12T12:39:53.539Z,21.97
2022-12-12T12:42:55.308Z,22.27
2022-12-12T12:45:53.108Z,21.50
2022-12-12T12:48:28.988Z,24.43
2022-12-12T12:51:17.070Z,23.90
2022-12-12T12:53:53.557Z,26.10
2022-12-12T12:56:26.473Z,25.50
2022-12-12T12:58:58.358Z,24.17
2022-12-12T13:01:35.269Z,23.30
2022-12-12T13:04:12.226Z,22.10
2022-12-12T13:07:17.063Z,23.73
2022-12-12T13:10:11.324Z,22.37
2022-12-12T13:12:54.598Z,21.40
2022-12-12T13:15:35.004Z,23.43
2022-12-12T13:18:06.522Z,24.37
2022-12-12T13:20:40.546Z,23.80
2022-12-12T13:23:34.745Z,22.57
2022-12-12T13:26:23.229Z,22.90
2022-12-12T13:29:00.880Z,28.77
2022-12-12T13:31:59.866Z,27.50
2022-12-12T13:34:32.344Z,27.83
2022-12-12T13:36:59.869Z,26.83
2022-12-12T13:39:38.186Z,26.03
2022-12-12T13:42:08.465Z,28.03
2022-12-12T13:44:45.248Z,31.50
2022-12-12T13:47:35.057Z,27.47
2022-12-12T13:50:11.106Z,27.40
2022-12-12T13:52:42.662Z,26.90
2022-12-12T13:55:16.094Z,22.70
2022-12-12T13:58:02.120Z,26.30
2022-12-12T14:00:36.518Z,27.83
2022-12-12T14:03:11.774Z,25.20
2022-12-12T14:05:51.608Z,31.33
2022-12-12T14:08:18.523Z,31.33
2022-12-12T14:11:06.839Z,29.33
2022-12-12T14:13:43.028Z,28.37
2022-12-12T14:16:16.952Z,23.53
2022-12-12T14:18:49.971Z,30.13
2022-12-12T14:21:20.218Z,30.07
2022-12-12T14:23:52.833Z,31.83
2022-12-12T14:26:28.992Z,31.20
2022-12-12T14:29:17.433Z,29.67
2022-12-12T14:32:25.062Z,28.70
2022-12-12T14:35:24.000Z,30.93
2022-12-12T14:38:22.622Z,31.63
2022-12-12T14:41:02.583Z,30.03
2022-12-12T14:43:48.093Z,30.10
2022-12-12T14:46:42.431Z,30.73
2022-12-12T14:49:18.265Z,32.03
2022-12-12T14:51:50.265Z,32.83
2022-12-12T14:54:21.502Z,35.10
2022-12-12T14:56:53.460Z,34.53
2022-12-12T14:59:27.577Z,36.73
2022-12-12T15:02:01.210Z,34.10
2022-12-12T15:04:35.654Z,35.70
2022-12-12T15:07:05.517Z,30.83
2022-12-12T15:09:38.888Z,33.60
2022-12-12T15:12:11.469Z,33.23
2022-12-12T15:14:48.319Z,36.17
2022-12-12T15:17:45.748Z,31.07
2022-12-12T15:20:21.033Z,33.30
2022-12-12T15:23:14.955Z,45.37
2022-12-12T15:25:54.495Z,37.30
2022-12-12T15:28:24.799Z,28.97
2022-12-12T15:30:53.697Z,39.10
2022-12-12T15:33:24.423Z,37.20
2022-12-12T15:36:02.894Z,31.80
2022-12-12T15:38:31.722Z,31.33
2022-12-12T15:41:01.656Z,28.90
2022-12-12T15:43:30.991Z,33.10
2022-12-12T15:46:13.823Z,29.67
2022-12-12T15:48:46.251Z,28.13
2022-12-12T15:51:18.372Z,34.37
2022-12-12T15:53:51.691Z,30.80
2022-12-12T15:56:21.568Z,31.63
2022-12-12T15:59:14.155Z,37.67
2022-12-12T16:01:41.247Z,42.53
2022-12-12T16:04:11.466Z,89.23
2022-12-12T16:06:44.480Z,118.87
2022-12-12T16:09:11.309Z,120.20
2022-12-12T16:11:49.382Z,70.43
2022-12-12T16:14:38.993Z,51.30
2022-12-12T16:17:24.092Z,40.00
2022-12-12T16:20:11.348Z,38.43
2022-12-12T16:22:48.078Z,41.10
2022-12-12T16:25:22.662Z,40.20
2022-12-12T16:28:09.889Z,38.40
2022-12-12T16:30:42.454Z,40.73
2022-12-12T16:33:36.190Z,41.27
2022-12-12T16:36:07.095Z,40.27
2022-12-12T16:38:35.494Z,39.37
2022-12-12T16:41:13.332Z,42.00
2022-12-12T16:43:41.123Z,38.40
2022-12-12T16:46:24.916Z,34.20
2022-12-12T16:48:52.641Z,33.93
2022-12-12T16:51:28.865Z,35.57
2022-12-12T16:53:56.424Z,32.83
2022-12-12T16:56:23.391Z,32.73
2022-12-12T16:58:50.631Z,31.73
2022-12-12T17:01:17.672Z,35.07
2022-12-12T17:03:44.706Z,30.63
2022-12-12T17:06:11.886Z,34.37
2022-12-12T17:08:38.902Z,36.97
2022-12-12T17:11:09.637Z,38.27
2022-12-12T17:13:41.669Z,47.03
2022-12-12T17:16:08.733Z,43.60
2022-12-12T17:18:35.839Z,44.43
2022-12-12T17:21:02.945Z,40.70
2022-12-12T17:23:30.063Z,45.50
2022-12-12T17:26:03.379Z,43.10
2022-12-12T17:28:33.148Z,38.17
2022-12-12T17:31:02.528Z,42.57
2022-12-12T17:33:30.184Z,44.67
2022-12-12T17:35:59.650Z,44.17
2022-12-12T17:38:26.796Z,42.40
2022-12-12T17:40:55.877Z,38.17
2022-12-12T17:43:26.189Z,43.23
2022-12-12T17:46:02.330Z,40.53
2022-12-12T17:48:31.974Z,40.40
2022-12-12T17:51:05.208Z,44.13
2022-12-12T17:53:38.460Z,39.53
2022-12-12T17:56:16.007Z,36.03
2022-12-12T17:58:46.280Z,38.03
2022-12-12T18:01:22.030Z,37.87
2022-12-12T18:03:49.885Z,38.97
2022-12-12T18:06:19.474Z,41.37
2022-12-12T18:08:47.525Z,38.10
2022-12-12T18:11:24.760Z,37.47
2022-12-12T18:13:53.880Z,39.67
2022-12-12T18:16:23.671Z,44.50
2022-12-12T18:18:55.051Z,49.57
2022-12-12T18:24:13.434Z,43.03
2022-12-12T18:26:40.629Z,43.67
2022-12-12T18:29:09.434Z,44.13
2022-12-12T18:31:36.587Z,44.10
2022-12-12T18:34:04.221Z,47.83
2022-12-12T18:36:32.081Z,46.80
2022-12-12T18:39:01.613Z,42.13
2022-12-12T18:41:31.623Z,44.43
2022-12-12T18:44:03.239Z,41.90
2022-12-12T18:46:33.962Z,48.73
2022-12-12T18:49:03.175Z,43.80
2022-12-12T18:51:30.833Z,48.10
2022-12-12T18:54:05.341Z,50.03
2022-12-12T18:56:36.022Z,49.60
2022-12-12T18:59:03.491Z,47.37
2022-12-12T19:01:34.492Z,45.17
2022-12-12T19:04:10.676Z,45.33
2022-12-12T19:06:40.419Z,46.90
2022-12-12T19:09:14.598Z,51.93
2022-12-12T19:11:42.026Z,43.23
2022-12-12T19:14:11.480Z,41.93
2022-12-12T19:16:38.547Z,44.10
2022-12-12T19:19:06.445Z,43.73
2022-12-12T19:21:36.499Z,49.40
2022-12-12T19:24:04.848Z,42.83
2022-12-12T19:26:32.061Z,45.63
2022-12-12T19:29:03.587Z,47.07
2022-12-12T19:31:34.657Z,43.97
2022-12-12T19:34:07.270Z,45.17
2022-12-12T19:36:35.802Z,53.57
2022-12-12T19:39:05.204Z,51.73
2022-12-12T19:41:32.660Z,50.40
2022-12-12T19:44:05.161Z,48.53
2022-12-12T19:46:33.063Z,48.43
2022-12-12T19:49:09.565Z,50.40
2022-12-12T19:51:39.260Z,51.37
2022-12-12T19:54:13.917Z,53.63
2022-12-12T19:56:41.694Z,45.70
2022-12-12T19:59:15.625Z,46.80
2022-12-12T20:01:43.641Z,50.47
2022-12-12T20:04:17.674Z,48.43
2022-12-12T20:06:46.489Z,49.57
2022-12-12T20:09:23.605Z,51.13
2022-12-12T20:11:51.032Z,47.23
2022-12-12T20:14:24.753Z,55.87
2022-12-12T20:16:53.845Z,53.57
2022-12-12T20:19:23.317Z,60.47
2022-12-12T20:22:01.666Z,48.80
2022-12-12T20:24:30.570Z,54.70
2022-12-12T20:26:59.586Z,55.73
2022-12-12T20:29:27.297Z,49.07
2022-12-12T20:31:54.292Z,51.87
2022-12-12T20:34:24.314Z,52.10
2022-12-12T20:36:51.553Z,52.97
2022-12-12T20:39:21.919Z,58.03
2022-12-12T20:41:50.619Z,51.17
2022-12-12T20:44:17.870Z,62.97
2022-12-12T20:46:46.837Z,69.00
2022-12-12T20:49:17.669Z,66.07
2022-12-12T20:52:00.940Z,65.63
2022-12-12T20:54:29.528Z,58.47
2022-12-12T20:56:58.176Z,51.87
2022-12-12T20:59:25.589Z,53.70
2022-12-12T21:01:52.958Z,49.97
2022-12-12T21:04:20.941Z,47.60
2022-12-12T21:06:49.391Z,49.23
2022-12-12T21:09:23.654Z,46.23
2022-12-12T21:11:57.844Z,47.10
2022-12-12T21:14:27.331Z,48.27
2022-12-12T21:16:55.062Z,48.57
2022-12-12T21:19:23.429Z,45.20
2022-12-12T21:21:51.754Z,46.93
2022-12-12T21:24:19.681Z,47.13
2022-12-12T21:26:47.584Z,52.60
2022-12-12T21:29:15.505Z,47.80
2022-12-12T21:31:50.433Z,49.20
2022-12-12T21:34:22.167Z,44.80
2022-12-12T21:36:54.865Z,58.83
2022-12-12T21:39:27.473Z,54.80
2022-12-12T21:41:55.964Z,59.63
2022-12-12T21:44:23.100Z,52.47
2022-12-12T21:46:50.641Z,52.40
2022-12-12T21:49:26.012Z,54.70
2022-12-12T21:52:03.575Z,49.23
2022-12-12T21:54:31.057Z,48.93
2022-12-12T21:57:00.101Z,47.97
2022-12-12T21:59:27.852Z,48.70
2022-12-12T22:02:00.356Z,51.53
2022-12-12T22:04:27.827Z,51.23
2022-12-12T22:06:55.474Z,49.60
2022-12-12T22:09:22.663Z,53.90
2022-12-12T22:11:51.504Z,48.43
2022-12-12T22:14:21.601Z,45.03
2022-12-12T22:16:49.529Z,52.97
2022-12-12T22:19:17.260Z,52.57
2022-12-12T22:21:46.603Z,49.10
2022-12-12T22:24:14.570Z,48.53
2022-12-12T22:26:44.504Z,45.33
2022-12-12T22:29:18.781Z,44.73
2022-12-12T22:31:46.424Z,49.77
2022-12-12T22:34:20.931Z,52.63
2022-12-12T22:36:48.428Z,45.50
2022-12-12T22:39:23.493Z,50.63
2022-12-12T22:41:50.889Z,45.57
2022-12-12T22:44:21.512Z,44.70
2022-12-12T22:46:50.770Z,45.20
2022-12-12T22:49:27.569Z,42.80
2022-12-12T22:51:57.345Z,44.03
2022-12-12T22:54:25.678Z,45.77
2022-12-12T22:56:52.832Z,50.60
2022-12-12T22:59:19.851Z,50.23
2022-12-12T23:01:46.788Z,44.87
2022-12-12T23:04:14.456Z,50.73
2022-12-12T23:06:42.622Z,49.53
2022-12-12T23:09:16.085Z,39.17
2022-12-12T23:11:44.625Z,51.87
2022-12-12T23:14:19.833Z,45.87
2022-12-12T23:16:46.840Z,44.60
2022-12-12T23:19:17.321Z,45.50
2022-12-12T23:21:44.932Z,54.73
2022-12-12T23:24:12.825Z,55.03
2022-12-12T23:26:40.122Z,42.57
2022-12-12T23:29:10.108Z,45.33
2022-12-12T23:31:38.915Z,49.27
2022-12-12T23:34:22.987Z,51.17
2022-12-12T23:36:52.407Z,45.60
2022-12-12T23:39:19.877Z,50.13
2022-12-12T23:41:47.579Z,60.33
2022-12-12T23:44:16.950Z,49.97
2022-12-12T23:46:44.848Z,55.90
2022-12-12T23:49:26.184Z,59.77
2022-12-12T23:51:56.019Z,50.20
2022-12-12T23:54:27.338Z,53.13
2022-12-12T23:56:54.961Z,50.40
2022-12-12T23:59:22.279Z,54.97
